sensor_id;sensor_type;location;lat;lon;timestamp;P1;durP1;ratioP1;P2;durP2;ratioP2
60241;SDS011;46103;52.076;113.488;2023-02-28T00:00:16;11.88;;;5.60;;
60241;SDS011;46103;52.076;113.488;2023-02-28T00:03:20;10.45;;;4.57;;
60241;SDS011;46103;52.076;113.488;2023-02-28T00:06:23;13.15;;;5.80;;
60241;SDS011;46103;52.076;113.488;2023-02-28T00:09:27;13.45;;;6.32;;
60241;SDS011;46103;52.076;113.488;2023-02-28T00:12:31;15.07;;;5.95;;
60241;SDS011;46103;52.076;113.488;2023-02-28T00:15:35;24.00;;;10.15;;
60241;SDS011;46103;52.076;113.488;2023-02-28T00:18:38;13.60;;;6.78;;
60241;SDS011;46103;52.076;113.488;2023-02-28T00:21:43;25.58;;;8.23;;
60241;SDS011;46103;52.076;113.488;2023-02-28T00:24:46;21.67;;;7.72;;
60241;SDS011;46103;52.076;113.488;2023-02-28T00:27:50;18.75;;;8.02;;
60241;SDS011;46103;52.076;113.488;2023-02-28T00:30:54;14.70;;;6.70;;
60241;SDS011;46103;52.076;113.488;2023-02-28T00:34:00;7.85;;;3.97;;
60241;SDS011;46103;52.076;113.488;2023-02-28T00:37:06;18.00;;;6.57;;
60241;SDS011;46103;52.076;113.488;2023-02-28T00:40:11;13.95;;;7.75;;
60241;SDS011;46103;52.076;113.488;2023-02-28T00:43:15;19.52;;;6.50;;
60241;SDS011;46103;52.076;113.488;2023-02-28T00:46:19;18.88;;;8.05;;
60241;SDS011;46103;52.076;113.488;2023-02-28T00:49:24;24.33;;;9.57;;
60241;SDS011;46103;52.076;113.488;2023-02-28T00:52:32;16.98;;;6.88;;
60241;SDS011;46103;52.076;113.488;2023-02-28T00:55:35;16.02;;;7.10;;
60241;SDS011;46103;52.076;113.488;2023-02-28T00:58:39;8.02;;;4.38;;
60241;SDS011;46103;52.076;113.488;2023-02-28T01:01:43;14.63;;;5.90;;
60241;SDS011;46103;52.076;113.488;2023-02-28T01:04:49;19.95;;;7.07;;
60241;SDS011;46103;52.076;113.488;2023-02-28T01:07:53;15.07;;;6.47;;
60241;SDS011;46103;52.076;113.488;2023-02-28T01:10:57;19.17;;;7.55;;
60241;SDS011;46103;52.076;113.488;2023-02-28T01:14:01;18.27;;;7.93;;
60241;SDS011;46103;52.076;113.488;2023-02-28T01:17:06;18.63;;;6.82;;
60241;SDS011;46103;52.076;113.488;2023-02-28T01:20:09;24.17;;;9.10;;
60241;SDS011;46103;52.076;113.488;2023-02-28T01:23:13;13.48;;;5.35;;
60241;SDS011;46103;52.076;113.488;2023-02-28T01:26:19;16.05;;;6.07;;
60241;SDS011;46103;52.076;113.488;2023-02-28T01:29:25;15.93;;;5.88;;
60241;SDS011;46103;52.076;113.488;2023-02-28T01:32:29;8.80;;;4.90;;
60241;SDS011;46103;52.076;113.488;2023-02-28T01:35:33;11.75;;;5.13;;
60241;SDS011;46103;52.076;113.488;2023-02-28T01:38:37;13.35;;;4.38;;
60241;SDS011;46103;52.076;113.488;2023-02-28T01:41:41;12.95;;;4.75;;
60241;SDS011;46103;52.076;113.488;2023-02-28T01:44:59;6.32;;;3.67;;
60241;SDS011;46103;52.076;113.488;2023-02-28T01:48:25;6.15;;;3.30;;
60241;SDS011;46103;52.076;113.488;2023-02-28T01:55:06;12.15;;;4.93;;
60241;SDS011;46103;52.076;113.488;2023-02-28T01:58:11;18.73;;;5.15;;
60241;SDS011;46103;52.076;113.488;2023-02-28T02:01:15;7.95;;;3.67;;
60241;SDS011;46103;52.076;113.488;2023-02-28T02:04:24;11.70;;;4.53;;
60241;SDS011;46103;52.076;113.488;2023-02-28T02:07:35;9.23;;;3.47;;
60241;SDS011;46103;52.076;113.488;2023-02-28T02:10:47;14.13;;;5.97;;
60241;SDS011;46103;52.076;113.488;2023-02-28T02:17:20;18.30;;;4.82;;
60241;SDS011;46103;52.076;113.488;2023-02-28T02:24:27;15.55;;;4.70;;
60241;SDS011;46103;52.076;113.488;2023-02-28T02:38:11;11.82;;;4.25;;
60241;SDS011;46103;52.076;113.488;2023-02-28T02:41:24;13.13;;;4.20;;
60241;SDS011;46103;52.076;113.488;2023-02-28T02:44:46;9.38;;;3.67;;
60241;SDS011;46103;52.076;113.488;2023-02-28T02:48:03;15.75;;;5.30;;
60241;SDS011;46103;52.076;113.488;2023-02-28T02:54:19;11.85;;;4.93;;
60241;SDS011;46103;52.076;113.488;2023-02-28T02:57:36;11.35;;;4.38;;
60241;SDS011;46103;52.076;113.488;2023-02-28T03:00:55;11.90;;;4.15;;
60241;SDS011;46103;52.076;113.488;2023-02-28T03:04:12;10.05;;;4.30;;
60241;SDS011;46103;52.076;113.488;2023-02-28T03:07:19;8.20;;;3.97;;
60241;SDS011;46103;52.076;113.488;2023-02-28T03:10:38;11.00;;;3.45;;
60241;SDS011;46103;52.076;113.488;2023-02-28T03:13:55;10.07;;;3.42;;
60241;SDS011;46103;52.076;113.488;2023-02-28T03:21:38;10.10;;;3.80;;
60241;SDS011;46103;52.076;113.488;2023-02-28T03:28:45;4.28;;;2.20;;
60241;SDS011;46103;52.076;113.488;2023-02-28T03:35:07;5.82;;;2.92;;
60241;SDS011;46103;52.076;113.488;2023-02-28T03:42:02;4.50;;;2.58;;
60241;SDS011;46103;52.076;113.488;2023-02-28T03:45:16;3.78;;;2.00;;
60241;SDS011;46103;52.076;113.488;2023-02-28T03:48:31;5.95;;;2.92;;
60241;SDS011;46103;52.076;113.488;2023-02-28T03:51:44;4.63;;;2.80;;
60241;SDS011;46103;52.076;113.488;2023-02-28T03:54:55;5.53;;;2.22;;
60241;SDS011;46103;52.076;113.488;2023-02-28T03:58:51;5.75;;;2.92;;
60241;SDS011;46103;52.076;113.488;2023-02-28T04:01:40;4.97;;;2.15;;
60241;SDS011;46103;52.076;113.488;2023-02-28T04:04:49;6.32;;;2.90;;
60241;SDS011;46103;52.076;113.488;2023-02-28T04:08:02;7.00;;;2.97;;
60241;SDS011;46103;52.076;113.488;2023-02-28T04:14:40;5.88;;;2.75;;
60241;SDS011;46103;52.076;113.488;2023-02-28T04:17:44;7.07;;;2.45;;
60241;SDS011;46103;52.076;113.488;2023-02-28T04:20:47;7.07;;;2.50;;
60241;SDS011;46103;52.076;113.488;2023-02-28T04:23:50;4.25;;;2.38;;
60241;SDS011;46103;52.076;113.488;2023-02-28T04:26:55;4.57;;;2.38;;
60241;SDS011;46103;52.076;113.488;2023-02-28T04:30:00;3.63;;;1.90;;
60241;SDS011;46103;52.076;113.488;2023-02-28T04:33:04;6.78;;;2.53;;
60241;SDS011;46103;52.076;113.488;2023-02-28T04:36:07;5.78;;;2.65;;
60241;SDS011;46103;52.076;113.488;2023-02-28T04:39:11;7.20;;;2.92;;
60241;SDS011;46103;52.076;113.488;2023-02-28T04:42:14;6.40;;;3.00;;
60241;SDS011;46103;52.076;113.488;2023-02-28T04:45:18;5.47;;;2.55;;
60241;SDS011;46103;52.076;113.488;2023-02-28T04:48:24;4.53;;;2.95;;
60241;SDS011;46103;52.076;113.488;2023-02-28T04:51:29;6.65;;;2.95;;
60241;SDS011;46103;52.076;113.488;2023-02-28T04:54:33;6.53;;;3.05;;
60241;SDS011;46103;52.076;113.488;2023-02-28T04:57:37;9.00;;;3.35;;
60241;SDS011;46103;52.076;113.488;2023-02-28T05:00:40;5.95;;;2.97;;
60241;SDS011;46103;52.076;113.488;2023-02-28T05:03:44;7.32;;;3.00;;
60241;SDS011;46103;52.076;113.488;2023-02-28T05:06:49;6.05;;;2.45;;
60241;SDS011;46103;52.076;113.488;2023-02-28T05:09:52;8.40;;;3.13;;
60241;SDS011;46103;52.076;113.488;2023-02-28T05:12:56;9.55;;;3.72;;
60241;SDS011;46103;52.076;113.488;2023-02-28T05:15:59;6.20;;;2.45;;
60241;SDS011;46103;52.076;113.488;2023-02-28T05:19:03;4.72;;;2.17;;
60241;SDS011;46103;52.076;113.488;2023-02-28T05:22:13;4.07;;;1.88;;
60241;SDS011;46103;52.076;113.488;2023-02-28T05:25:20;3.42;;;1.80;;
60241;SDS011;46103;52.076;113.488;2023-02-28T05:28:27;5.28;;;2.10;;
60241;SDS011;46103;52.076;113.488;2023-02-28T05:31:31;5.63;;;2.42;;
60241;SDS011;46103;52.076;113.488;2023-02-28T05:34:37;4.00;;;2.20;;
60241;SDS011;46103;52.076;113.488;2023-02-28T05:37:41;3.90;;;1.98;;
60241;SDS011;46103;52.076;113.488;2023-02-28T05:40:44;5.90;;;2.70;;
60241;SDS011;46103;52.076;113.488;2023-02-28T05:43:48;4.93;;;2.30;;
60241;SDS011;46103;52.076;113.488;2023-02-28T05:46:52;5.93;;;3.10;;
60241;SDS011;46103;52.076;113.488;2023-02-28T05:49:56;4.43;;;1.88;;
60241;SDS011;46103;52.076;113.488;2023-02-28T05:53:00;4.75;;;2.33;;
60241;SDS011;46103;52.076;113.488;2023-02-28T05:56:07;2.88;;;1.25;;
60241;SDS011;46103;52.076;113.488;2023-02-28T05:59:14;5.57;;;2.15;;
60241;SDS011;46103;52.076;113.488;2023-02-28T06:02:18;4.53;;;2.53;;
60241;SDS011;46103;52.076;113.488;2023-02-28T06:05:25;5.10;;;2.22;;
60241;SDS011;46103;52.076;113.488;2023-02-28T06:08:33;7.97;;;2.60;;
60241;SDS011;46103;52.076;113.488;2023-02-28T06:11:42;3.70;;;2.17;;
60241;SDS011;46103;52.076;113.488;2023-02-28T06:14:51;5.05;;;2.03;;
60241;SDS011;46103;52.076;113.488;2023-02-28T06:18:00;4.10;;;2.15;;
60241;SDS011;46103;52.076;113.488;2023-02-28T06:21:08;4.60;;;2.13;;
60241;SDS011;46103;52.076;113.488;2023-02-28T06:24:14;4.25;;;2.30;;
60241;SDS011;46103;52.076;113.488;2023-02-28T06:27:17;4.78;;;2.20;;
60241;SDS011;46103;52.076;113.488;2023-02-28T06:30:22;6.47;;;2.60;;
60241;SDS011;46103;52.076;113.488;2023-02-28T06:36:35;8.30;;;2.78;;
60241;SDS011;46103;52.076;113.488;2023-02-28T06:39:41;6.78;;;2.38;;
60241;SDS011;46103;52.076;113.488;2023-02-28T06:42:48;11.05;;;4.10;;
60241;SDS011;46103;52.076;113.488;2023-02-28T06:45:56;5.50;;;2.90;;
60241;SDS011;46103;52.076;113.488;2023-02-28T06:49:03;5.03;;;2.67;;
60241;SDS011;46103;52.076;113.488;2023-02-28T06:52:12;4.60;;;2.45;;
60241;SDS011;46103;52.076;113.488;2023-02-28T06:55:19;7.35;;;2.30;;
60241;SDS011;46103;52.076;113.488;2023-02-28T06:58:25;5.45;;;3.00;;
60241;SDS011;46103;52.076;113.488;2023-02-28T07:01:31;5.55;;;2.17;;
60241;SDS011;46103;52.076;113.488;2023-02-28T07:04:36;3.42;;;2.03;;
60241;SDS011;46103;52.076;113.488;2023-02-28T07:07:44;6.05;;;3.25;;
60241;SDS011;46103;52.076;113.488;2023-02-28T07:10:55;7.38;;;3.70;;
60241;SDS011;46103;52.076;113.488;2023-02-28T07:14:04;7.43;;;3.20;;
60241;SDS011;46103;52.076;113.488;2023-02-28T07:17:11;5.60;;;2.30;;
60241;SDS011;46103;52.076;113.488;2023-02-28T07:23:28;4.53;;;2.08;;
60241;SDS011;46103;52.076;113.488;2023-02-28T07:26:36;3.05;;;1.70;;
60241;SDS011;46103;52.076;113.488;2023-02-28T07:29:43;7.10;;;2.65;;
60241;SDS011;46103;52.076;113.488;2023-02-28T07:32:51;5.72;;;2.20;;
60241;SDS011;46103;52.076;113.488;2023-02-28T07:36:04;6.20;;;2.60;;
60241;SDS011;46103;52.076;113.488;2023-02-28T07:39:21;5.15;;;2.38;;
60241;SDS011;46103;52.076;113.488;2023-02-28T07:42:30;6.55;;;2.42;;
60241;SDS011;46103;52.076;113.488;2023-02-28T07:45:38;5.03;;;2.67;;
60241;SDS011;46103;52.076;113.488;2023-02-28T07:48:42;11.77;;;2.10;;
60241;SDS011;46103;52.076;113.488;2023-02-28T07:51:49;6.82;;;2.70;;
60241;SDS011;46103;52.076;113.488;2023-02-28T07:54:52;10.00;;;3.55;;
60241;SDS011;46103;52.076;113.488;2023-02-28T07:57:57;4.45;;;2.47;;
60241;SDS011;46103;52.076;113.488;2023-02-28T08:01:07;3.15;;;2.03;;
60241;SDS011;46103;52.076;113.488;2023-02-28T08:04:15;5.05;;;2.28;;
60241;SDS011;46103;52.076;113.488;2023-02-28T08:07:19;4.07;;;2.40;;
60241;SDS011;46103;52.076;113.488;2023-02-28T08:10:23;6.13;;;2.35;;
60241;SDS011;46103;52.076;113.488;2023-02-28T08:13:28;6.28;;;2.53;;
60241;SDS011;46103;52.076;113.488;2023-02-28T08:16:32;8.75;;;3.60;;
60241;SDS011;46103;52.076;113.488;2023-02-28T08:19:36;8.32;;;3.80;;
60241;SDS011;46103;52.076;113.488;2023-02-28T08:22:40;5.70;;;2.92;;
60241;SDS011;46103;52.076;113.488;2023-02-28T08:25:52;3.67;;;2.28;;
60241;SDS011;46103;52.076;113.488;2023-02-28T08:28:58;4.97;;;2.38;;
60241;SDS011;46103;52.076;113.488;2023-02-28T08:32:03;5.65;;;2.47;;
60241;SDS011;46103;52.076;113.488;2023-02-28T08:35:15;9.65;;;2.28;;
60241;SDS011;46103;52.076;113.488;2023-02-28T08:38:19;3.92;;;1.88;;
60241;SDS011;46103;52.076;113.488;2023-02-28T08:41:23;6.88;;;2.78;;
60241;SDS011;46103;52.076;113.488;2023-02-28T08:44:27;5.50;;;1.90;;
60241;SDS011;46103;52.076;113.488;2023-02-28T08:47:30;8.18;;;3.13;;
60241;SDS011;46103;52.076;113.488;2023-02-28T08:50:34;6.22;;;2.72;;
60241;SDS011;46103;52.076;113.488;2023-02-28T08:53:39;5.32;;;2.33;;
60241;SDS011;46103;52.076;113.488;2023-02-28T08:56:42;5.57;;;2.55;;
60241;SDS011;46103;52.076;113.488;2023-02-28T08:59:46;9.90;;;3.80;;
60241;SDS011;46103;52.076;113.488;2023-02-28T09:02:50;8.93;;;3.95;;
60241;SDS011;46103;52.076;113.488;2023-02-28T09:05:58;11.13;;;4.57;;
60241;SDS011;46103;52.076;113.488;2023-02-28T09:09:02;15.68;;;5.55;;
60241;SDS011;46103;52.076;113.488;2023-02-28T09:12:09;13.50;;;5.43;;
60241;SDS011;46103;52.076;113.488;2023-02-28T09:15:13;10.88;;;5.22;;
60241;SDS011;46103;52.076;113.488;2023-02-28T09:18:16;16.27;;;4.03;;
60241;SDS011;46103;52.076;113.488;2023-02-28T09:21:19;13.68;;;4.93;;
60241;SDS011;46103;52.076;113.488;2023-02-28T09:24:22;9.55;;;4.63;;
60241;SDS011;46103;52.076;113.488;2023-02-28T09:27:25;9.73;;;4.72;;
60241;SDS011;46103;52.076;113.488;2023-02-28T09:30:29;12.27;;;5.75;;
60241;SDS011;46103;52.076;113.488;2023-02-28T09:33:33;8.73;;;3.80;;
60241;SDS011;46103;52.076;113.488;2023-02-28T09:36:37;12.88;;;5.65;;
60241;SDS011;46103;52.076;113.488;2023-02-28T09:39:46;22.83;;;5.32;;
60241;SDS011;46103;52.076;113.488;2023-02-28T09:42:51;12.10;;;4.75;;
60241;SDS011;46103;52.076;113.488;2023-02-28T09:49:23;13.30;;;5.25;;
60241;SDS011;46103;52.076;113.488;2023-02-28T09:52:32;13.15;;;5.47;;
60241;SDS011;46103;52.076;113.488;2023-02-28T09:55:37;18.35;;;6.75;;
60241;SDS011;46103;52.076;113.488;2023-02-28T09:58:53;13.20;;;6.32;;
60241;SDS011;46103;52.076;113.488;2023-02-28T10:02:14;15.90;;;6.38;;
60241;SDS011;46103;52.076;113.488;2023-02-28T10:06:12;20.83;;;6.50;;
60241;SDS011;46103;52.076;113.488;2023-02-28T10:12:02;20.63;;;7.60;;
60241;SDS011;46103;52.076;113.488;2023-02-28T10:15:07;20.17;;;8.27;;
60241;SDS011;46103;52.076;113.488;2023-02-28T10:18:20;15.50;;;6.43;;
60241;SDS011;46103;52.076;113.488;2023-02-28T10:21:38;15.95;;;6.38;;
60241;SDS011;46103;52.076;113.488;2023-02-28T10:24:53;12.90;;;5.82;;
60241;SDS011;46103;52.076;113.488;2023-02-28T10:28:20;11.77;;;5.53;;
60241;SDS011;46103;52.076;113.488;2023-02-28T10:31:23;4.82;;;2.58;;
60241;SDS011;46103;52.076;113.488;2023-02-28T10:34:27;15.27;;;6.40;;
60241;SDS011;46103;52.076;113.488;2023-02-28T10:37:31;29.08;;;10.00;;
60241;SDS011;46103;52.076;113.488;2023-02-28T10:40:34;17.17;;;6.40;;
60241;SDS011;46103;52.076;113.488;2023-02-28T10:43:41;29.23;;;9.73;;
60241;SDS011;46103;52.076;113.488;2023-02-28T10:46:47;35.75;;;11.98;;
60241;SDS011;46103;52.076;113.488;2023-02-28T10:49:51;19.60;;;6.00;;
60241;SDS011;46103;52.076;113.488;2023-02-28T10:52:55;13.45;;;5.47;;
60241;SDS011;46103;52.076;113.488;2023-02-28T11:02:36;26.47;;;9.77;;
60241;SDS011;46103;52.076;113.488;2023-02-28T11:05:41;25.60;;;10.10;;
60241;SDS011;46103;52.076;113.488;2023-02-28T11:08:53;25.00;;;10.07;;
60241;SDS011;46103;52.076;113.488;2023-02-28T11:11:58;12.02;;;5.45;;
60241;SDS011;46103;52.076;113.488;2023-02-28T11:15:07;9.35;;;4.95;;
60241;SDS011;46103;52.076;113.488;2023-02-28T11:18:29;25.25;;;7.70;;
60241;SDS011;46103;52.076;113.488;2023-02-28T11:21:40;31.17;;;9.90;;
60241;SDS011;46103;52.076;113.488;2023-02-28T11:24:59;29.88;;;9.20;;
60241;SDS011;46103;52.076;113.488;2023-02-28T11:28:06;13.30;;;6.32;;
60241;SDS011;46103;52.076;113.488;2023-02-28T11:31:26;15.52;;;5.90;;
60241;SDS011;46103;52.076;113.488;2023-02-28T11:34:32;13.45;;;5.97;;
60241;SDS011;46103;52.076;113.488;2023-02-28T11:37:36;9.55;;;5.32;;
60241;SDS011;46103;52.076;113.488;2023-02-28T11:44:04;9.82;;;4.93;;
60241;SDS011;46103;52.076;113.488;2023-02-28T11:47:38;25.10;;;9.68;;
60241;SDS011;46103;52.076;113.488;2023-02-28T11:58:00;36.40;;;14.85;;
60241;SDS011;46103;52.076;113.488;2023-02-28T12:01:38;36.85;;;12.65;;
60241;SDS011;46103;52.076;113.488;2023-02-28T12:05:08;24.42;;;9.25;;
60241;SDS011;46103;52.076;113.488;2023-02-28T12:11:54;23.08;;;7.95;;
60241;SDS011;46103;52.076;113.488;2023-02-28T12:28:46;10.00;;;4.53;;
60241;SDS011;46103;52.076;113.488;2023-02-28T12:32:03;30.33;;;13.52;;
60241;SDS011;46103;52.076;113.488;2023-02-28T12:38:16;41.17;;;14.20;;
60241;SDS011;46103;52.076;113.488;2023-02-28T12:44:47;31.92;;;12.45;;
60241;SDS011;46103;52.076;113.488;2023-02-28T12:47:57;34.83;;;12.43;;
60241;SDS011;46103;52.076;113.488;2023-02-28T12:51:06;16.30;;;6.75;;
60241;SDS011;46103;52.076;113.488;2023-02-28T12:54:23;20.40;;;9.70;;
60241;SDS011;46103;52.076;113.488;2023-02-28T13:01:04;14.25;;;5.45;;
60241;SDS011;46103;52.076;113.488;2023-02-28T13:10:50;16.95;;;6.82;;
60241;SDS011;46103;52.076;113.488;2023-02-28T13:14:01;22.38;;;9.02;;
60241;SDS011;46103;52.076;113.488;2023-02-28T13:20:33;33.90;;;11.13;;
60241;SDS011;46103;52.076;113.488;2023-02-28T13:47:23;15.80;;;5.50;;
60241;SDS011;46103;52.076;113.488;2023-02-28T13:53:50;25.10;;;10.95;;
60241;SDS011;46103;52.076;113.488;2023-02-28T14:00:33;32.80;;;11.02;;
60241;SDS011;46103;52.076;113.488;2023-02-28T14:04:08;28.67;;;10.77;;
60241;SDS011;46103;52.076;113.488;2023-02-28T14:07:27;30.50;;;12.43;;
60241;SDS011;46103;52.076;113.488;2023-02-28T14:13:52;33.20;;;12.43;;
60241;SDS011;46103;52.076;113.488;2023-02-28T14:16:56;29.38;;;11.85;;
60241;SDS011;46103;52.076;113.488;2023-02-28T14:20:01;30.35;;;11.20;;
60241;SDS011;46103;52.076;113.488;2023-02-28T14:23:26;37.40;;;10.82;;
60241;SDS011;46103;52.076;113.488;2023-02-28T14:30:02;36.67;;;11.32;;
60241;SDS011;46103;52.076;113.488;2023-02-28T14:36:53;21.02;;;10.60;;
60241;SDS011;46103;52.076;113.488;2023-02-28T14:40:03;32.50;;;11.02;;
60241;SDS011;46103;52.076;113.488;2023-02-28T14:46:52;26.38;;;11.18;;
60241;SDS011;46103;52.076;113.488;2023-02-28T14:50:01;30.70;;;10.57;;
60241;SDS011;46103;52.076;113.488;2023-02-28T14:53:10;30.05;;;11.02;;
60241;SDS011;46103;52.076;113.488;2023-02-28T14:56:26;29.58;;;10.98;;
60241;SDS011;46103;52.076;113.488;2023-02-28T14:59:41;27.60;;;10.93;;
60241;SDS011;46103;52.076;113.488;2023-02-28T15:02:45;29.00;;;8.73;;
60241;SDS011;46103;52.076;113.488;2023-02-28T15:05:58;24.58;;;9.65;;
60241;SDS011;46103;52.076;113.488;2023-02-28T15:09:09;28.48;;;11.90;;
60241;SDS011;46103;52.076;113.488;2023-02-28T15:12:21;27.13;;;11.00;;
60241;SDS011;46103;52.076;113.488;2023-02-28T15:15:28;26.20;;;9.65;;
60241;SDS011;46103;52.076;113.488;2023-02-28T15:19:05;31.27;;;11.27;;
60241;SDS011;46103;52.076;113.488;2023-02-28T15:22:15;22.90;;;10.25;;
60241;SDS011;46103;52.076;113.488;2023-02-28T15:25:22;13.82;;;7.22;;
60241;SDS011;46103;52.076;113.488;2023-02-28T15:28:27;22.60;;;8.05;;
60241;SDS011;46103;52.076;113.488;2023-02-28T15:31:35;22.05;;;8.75;;
60241;SDS011;46103;52.076;113.488;2023-02-28T15:34:58;24.53;;;8.30;;
60241;SDS011;46103;52.076;113.488;2023-02-28T15:38:24;28.30;;;9.40;;
60241;SDS011;46103;52.076;113.488;2023-02-28T15:41:36;22.17;;;9.45;;
60241;SDS011;46103;52.076;113.488;2023-02-28T15:44:44;28.02;;;9.38;;
60241;SDS011;46103;52.076;113.488;2023-02-28T15:47:51;15.73;;;9.05;;
60241;SDS011;46103;52.076;113.488;2023-02-28T15:54:32;15.40;;;5.90;;
60241;SDS011;46103;52.076;113.488;2023-02-28T15:57:41;20.13;;;7.25;;
60241;SDS011;46103;52.076;113.488;2023-02-28T16:01:05;30.48;;;6.65;;
60241;SDS011;46103;52.076;113.488;2023-02-28T16:04:23;33.42;;;9.18;;
60241;SDS011;46103;52.076;113.488;2023-02-28T16:07:38;24.25;;;11.38;;
60241;SDS011;46103;52.076;113.488;2023-02-28T16:10:48;43.70;;;16.38;;
60241;SDS011;46103;52.076;113.488;2023-02-28T16:13:57;39.25;;;15.07;;
60241;SDS011;46103;52.076;113.488;2023-02-28T16:17:14;33.90;;;13.70;;
60241;SDS011;46103;52.076;113.488;2023-02-28T16:20:29;35.05;;;12.57;;
60241;SDS011;46103;52.076;113.488;2023-02-28T16:23:39;21.77;;;10.27;;
60241;SDS011;46103;52.076;113.488;2023-02-28T16:26:50;38.22;;;14.77;;
60241;SDS011;46103;52.076;113.488;2023-02-28T16:30:01;46.88;;;15.20;;
60241;SDS011;46103;52.076;113.488;2023-02-28T16:33:11;38.83;;;13.50;;
60241;SDS011;46103;52.076;113.488;2023-02-28T16:36:22;42.95;;;15.20;;
60241;SDS011;46103;52.076;113.488;2023-02-28T16:39:34;36.65;;;14.38;;
60241;SDS011;46103;52.076;113.488;2023-02-28T16:42:44;38.25;;;13.88;;
60241;SDS011;46103;52.076;113.488;2023-02-28T16:45:56;41.20;;;12.85;;
60241;SDS011;46103;52.076;113.488;2023-02-28T16:49:10;31.85;;;13.35;;
60241;SDS011;46103;52.076;113.488;2023-02-28T16:52:17;12.65;;;6.43;;
60241;SDS011;46103;52.076;113.488;2023-02-28T16:55:27;16.63;;;6.95;;
60241;SDS011;46103;52.076;113.488;2023-02-28T16:58:36;26.17;;;9.48;;
60241;SDS011;46103;52.076;113.488;2023-02-28T17:01:44;31.13;;;7.85;;
60241;SDS011;46103;52.076;113.488;2023-02-28T17:04:54;22.98;;;9.65;;
60241;SDS011;46103;52.076;113.488;2023-02-28T17:08:05;40.25;;;11.48;;
60241;SDS011;46103;52.076;113.488;2023-02-28T17:11:12;20.05;;;7.68;;
60241;SDS011;46103;52.076;113.488;2023-02-28T17:14:22;19.85;;;8.63;;
60241;SDS011;46103;52.076;113.488;2023-02-28T17:17:31;34.90;;;11.68;;
60241;SDS011;46103;52.076;113.488;2023-02-28T17:20:41;24.73;;;7.97;;
60241;SDS011;46103;52.076;113.488;2023-02-28T17:23:50;23.67;;;9.63;;
60241;SDS011;46103;52.076;113.488;2023-02-28T17:27:02;28.13;;;9.38;;
60241;SDS011;46103;52.076;113.488;2023-02-28T17:30:16;31.63;;;9.98;;
60241;SDS011;46103;52.076;113.488;2023-02-28T17:33:28;31.90;;;10.40;;
60241;SDS011;46103;52.076;113.488;2023-02-28T17:36:39;25.45;;;9.40;;
60241;SDS011;46103;52.076;113.488;2023-02-28T17:39:48;17.23;;;7.38;;
60241;SDS011;46103;52.076;113.488;2023-02-28T17:43:00;11.15;;;4.60;;
60241;SDS011;46103;52.076;113.488;2023-02-28T17:46:20;11.65;;;5.93;;
60241;SDS011;46103;52.076;113.488;2023-02-28T17:49:31;26.92;;;9.98;;
60241;SDS011;46103;52.076;113.488;2023-02-28T17:52:37;24.05;;;8.40;;
60241;SDS011;46103;52.076;113.488;2023-02-28T17:55:45;21.92;;;8.18;;
60241;SDS011;46103;52.076;113.488;2023-02-28T17:58:54;18.48;;;8.85;;
60241;SDS011;46103;52.076;113.488;2023-02-28T18:02:03;11.88;;;4.20;;
60241;SDS011;46103;52.076;113.488;2023-02-28T18:05:13;19.90;;;7.82;;
60241;SDS011;46103;52.076;113.488;2023-02-28T18:08:24;18.60;;;5.88;;
60241;SDS011;46103;52.076;113.488;2023-02-28T18:11:33;22.05;;;8.68;;
60241;SDS011;46103;52.076;113.488;2023-02-28T18:14:48;22.05;;;8.57;;
60241;SDS011;46103;52.076;113.488;2023-02-28T18:17:57;15.68;;;7.03;;
60241;SDS011;46103;52.076;113.488;2023-02-28T18:21:07;27.33;;;9.45;;
60241;SDS011;46103;52.076;113.488;2023-02-28T18:24:18;14.75;;;4.55;;
60241;SDS011;46103;52.076;113.488;2023-02-28T18:27:29;9.55;;;5.55;;
60241;SDS011;46103;52.076;113.488;2023-02-28T18:30:39;12.93;;;5.30;;
60241;SDS011;46103;52.076;113.488;2023-02-28T18:33:50;6.97;;;4.80;;
60241;SDS011;46103;52.076;113.488;2023-02-28T18:37:00;17.70;;;7.85;;
60241;SDS011;46103;52.076;113.488;2023-02-28T18:40:10;12.30;;;6.30;;
60241;SDS011;46103;52.076;113.488;2023-02-28T18:43:21;17.40;;;6.35;;
60241;SDS011;46103;52.076;113.488;2023-02-28T18:46:32;12.20;;;5.32;;
60241;SDS011;46103;52.076;113.488;2023-02-28T18:49:42;13.27;;;6.88;;
60241;SDS011;46103;52.076;113.488;2023-02-28T18:52:53;20.98;;;10.27;;
60241;SDS011;46103;52.076;113.488;2023-02-28T18:56:05;6.28;;;3.70;;
60241;SDS011;46103;52.076;113.488;2023-02-28T18:59:16;15.82;;;7.63;;
60241;SDS011;46103;52.076;113.488;2023-02-28T19:02:25;7.95;;;4.72;;
60241;SDS011;46103;52.076;113.488;2023-02-28T19:05:36;16.30;;;6.15;;
60241;SDS011;46103;52.076;113.488;2023-02-28T19:08:46;10.95;;;6.18;;
60241;SDS011;46103;52.076;113.488;2023-02-28T19:12:00;18.90;;;7.88;;
60241;SDS011;46103;52.076;113.488;2023-02-28T19:15:10;9.95;;;5.50;;
60241;SDS011;46103;52.076;113.488;2023-02-28T19:18:20;23.95;;;8.20;;
60241;SDS011;46103;52.076;113.488;2023-02-28T19:21:29;23.27;;;9.18;;
60241;SDS011;46103;52.076;113.488;2023-02-28T19:24:42;17.75;;;8.10;;
60241;SDS011;46103;52.076;113.488;2023-02-28T19:27:51;12.10;;;6.97;;
60241;SDS011;46103;52.076;113.488;2023-02-28T19:31:02;22.88;;;8.57;;
60241;SDS011;46103;52.076;113.488;2023-02-28T19:34:11;15.77;;;6.35;;
60241;SDS011;46103;52.076;113.488;2023-02-28T19:37:22;11.55;;;6.20;;
60241;SDS011;46103;52.076;113.488;2023-02-28T19:40:31;13.98;;;8.00;;
60241;SDS011;46103;52.076;113.488;2023-02-28T19:43:42;15.38;;;5.72;;
60241;SDS011;46103;52.076;113.488;2023-02-28T19:46:51;13.20;;;6.05;;
60241;SDS011;46103;52.076;113.488;2023-02-28T19:50:02;19.02;;;6.53;;
60241;SDS011;46103;52.076;113.488;2023-02-28T19:53:11;14.55;;;6.28;;
60241;SDS011;46103;52.076;113.488;2023-02-28T19:56:22;32.65;;;6.53;;
60241;SDS011;46103;52.076;113.488;2023-02-28T19:59:32;11.55;;;5.90;;
60241;SDS011;46103;52.076;113.488;2023-02-28T20:02:43;13.07;;;5.07;;
60241;SDS011;46103;52.076;113.488;2023-02-28T20:09:09;2.17;;;1.98;;
60241;SDS011;46103;52.076;113.488;2023-02-28T20:12:19;8.02;;;4.47;;
60241;SDS011;46103;52.076;113.488;2023-02-28T20:15:30;7.47;;;5.25;;
60241;SDS011;46103;52.076;113.488;2023-02-28T20:18:41;13.85;;;6.43;;
60241;SDS011;46103;52.076;113.488;2023-02-28T20:21:53;9.85;;;5.13;;
60241;SDS011;46103;52.076;113.488;2023-02-28T20:25:03;15.80;;;6.88;;
60241;SDS011;46103;52.076;113.488;2023-02-28T20:28:13;12.02;;;6.03;;
60241;SDS011;46103;52.076;113.488;2023-02-28T20:31:24;12.98;;;5.38;;
60241;SDS011;46103;52.076;113.488;2023-02-28T20:34:35;9.73;;;5.55;;
60241;SDS011;46103;52.076;113.488;2023-02-28T20:37:45;4.28;;;2.45;;
60241;SDS011;46103;52.076;113.488;2023-02-28T20:40:59;11.07;;;5.30;;
60241;SDS011;46103;52.076;113.488;2023-02-28T20:44:11;5.68;;;4.25;;
60241;SDS011;46103;52.076;113.488;2023-02-28T20:47:20;12.00;;;5.07;;
60241;SDS011;46103;52.076;113.488;2023-02-28T20:50:31;6.70;;;5.10;;
60241;SDS011;46103;52.076;113.488;2023-02-28T20:53:40;15.50;;;5.57;;